sensor_id;sensor_type;location;lat;lon;timestamp;temperature;humidity
22706;DHT22;11520;51.198;4.468;2022-12-13T00:01:15;-2.10;99.90
22706;DHT22;11520;51.198;4.468;2022-12-13T00:03:41;-2.10;99.90
22706;DHT22;11520;51.198;4.468;2022-12-13T00:06:08;-2.10;99.90
22706;DHT22;11520;51.198;4.468;2022-12-13T00:08:34;-2.00;99.90
22706;DHT22;11520;51.198;4.468;2022-12-13T00:11:07;-2.00;99.90
22706;DHT22;11520;51.198;4.468;2022-12-13T00:13:34;-2.00;99.90
22706;DHT22;11520;51.198;4.468;2022-12-13T00:16:02;-2.00;99.90
22706;DHT22;11520;51.198;4.468;2022-12-13T00:18:28;-2.00;99.90
22706;DHT22;11520;51.198;4.468;2022-12-13T00:20:57;-2.00;99.90
22706;DHT22;11520;51.198;4.468;2022-12-13T00:23:22;-2.00;99.90
22706;DHT22;11520;51.198;4.468;2022-12-13T00:25:49;-2.00;99.90
22706;DHT22;11520;51.198;4.468;2022-12-13T00:28:16;-1.90;99.90
22706;DHT22;11520;51.198;4.468;2022-12-13T00:30:45;-1.90;99.90
22706;DHT22;11520;51.198;4.468;2022-12-13T00:33:10;-1.90;99.90
22706;DHT22;11520;51.198;4.468;2022-12-13T00:35:40;-2.00;99.90
22706;DHT22;11520;51.198;4.468;2022-12-13T00:38:09;-2.20;99.90
22706;DHT22;11520;51.198;4.468;2022-12-13T00:40:36;-2.20;99.90
22706;DHT22;11520;51.198;4.468;2022-12-13T00:43:01;-2.20;99.90
22706;DHT22;11520;51.198;4.468;2022-12-13T00:45:27;-2.20;99.90
22706;DHT22;11520;51.198;4.468;2022-12-13T00:47:54;-2.20;99.90
22706;DHT22;11520;51.198;4.468;2022-12-13T00:50:20;-2.10;99.90
22706;DHT22;11520;51.198;4.468;2022-12-13T00:52:45;-2.10;99.90
22706;DHT22;11520;51.198;4.468;2022-12-13T00:55:11;-2.10;99.90
22706;DHT22;11520;51.198;4.468;2022-12-13T00:57:37;-2.10;99.90
22706;DHT22;11520;51.198;4.468;2022-12-13T01:00:04;-2.10;99.90
22706;DHT22;11520;51.198;4.468;2022-12-13T01:02:31;-2.10;99.90
22706;DHT22;11520;51.198;4.468;2022-12-13T01:04:57;-2.10;99.90
22706;DHT22;11520;51.198;4.468;2022-12-13T01:07:23;-2.20;99.90
22706;DHT22;11520;51.198;4.468;2022-12-13T01:09:49;-2.10;99.90
22706;DHT22;11520;51.198;4.468;2022-12-13T01:12:15;-2.20;99.90
22706;DHT22;11520;51.198;4.468;2022-12-13T01:14:40;-2.20;99.90
22706;DHT22;11520;51.198;4.468;2022-12-13T01:17:06;-1.70;99.90
22706;DHT22;11520;51.198;4.468;2022-12-13T01:19:34;-2.30;99.90
22706;DHT22;11520;51.198;4.468;2022-12-13T01:22:02;-2.40;99.90
22706;DHT22;11520;51.198;4.468;2022-12-13T01:24:30;-2.50;99.90
22706;DHT22;11520;51.198;4.468;2022-12-13T01:26:56;-2.60;99.90
22706;DHT22;11520;51.198;4.468;2022-12-13T01:29:22;-2.60;99.90
22706;DHT22;11520;51.198;4.468;2022-12-13T01:31:54;-2.60;99.90
22706;DHT22;11520;51.198;4.468;2022-12-13T01:34:21;-2.50;99.90
22706;DHT22;11520;51.198;4.468;2022-12-13T01:36:48;-2.40;99.90
22706;DHT22;11520;51.198;4.468;2022-12-13T01:39:17;-2.40;99.90
22706;DHT22;11520;51.198;4.468;2022-12-13T01:41:46;-2.40;99.90
22706;DHT22;11520;51.198;4.468;2022-12-13T01:47:22;-2.30;99.90
22706;DHT22;11520;51.198;4.468;2022-12-13T01:49:49;-2.20;99.90
22706;DHT22;11520;51.198;4.468;2022-12-13T01:52:16;-2.20;99.90
22706;DHT22;11520;51.198;4.468;2022-12-13T01:54:45;-2.30;99.90
22706;DHT22;11520;51.198;4.468;2022-12-13T01:57:19;-2.20;99.90
22706;DHT22;11520;51.198;4.468;2022-12-13T01:59:48;-2.20;99.90
22706;DHT22;11520;51.198;4.468;2022-12-13T02:02:15;-2.20;99.90
22706;DHT22;11520;51.198;4.468;2022-12-13T02:04:50;-2.30;99.90
22706;DHT22;11520;51.198;4.468;2022-12-13T02:07:25;-2.20;99.90
22706;DHT22;11520;51.198;4.468;2022-12-13T02:09:55;-2.20;99.90
22706;DHT22;11520;51.198;4.468;2022-12-13T02:12:27;-2.20;99.90
22706;DHT22;11520;51.198;4.468;2022-12-13T02:14:54;-2.30;99.90
22706;DHT22;11520;51.198;4.468;2022-12-13T02:17:23;-2.40;99.90
22706;DHT22;11520;51.198;4.468;2022-12-13T02:25:21;-2.40;99.90
22706;DHT22;11520;51.198;4.468;2022-12-13T02:31:17;-2.40;99.90
22706;DHT22;11520;51.198;4.468;2022-12-13T02:34:52;-2.40;99.90
22706;DHT22;11520;51.198;4.468;2022-12-13T02:37:09;-2.40;99.90
22706;DHT22;11520;51.198;4.468;2022-12-13T02:39:41;-2.40;99.90
22706;DHT22;11520;51.198;4.468;2022-12-13T02:42:27;-2.40;99.90
22706;DHT22;11520;51.198;4.468;2022-12-13T02:45:03;-2.40;99.90
22706;DHT22;11520;51.198;4.468;2022-12-13T02:47:31;-2.40;99.90
22706;DHT22;11520;51.198;4.468;2022-12-13T02:50:01;-2.40;99.90
22706;DHT22;11520;51.198;4.468;2022-12-13T02:52:31;-2.40;99.90
22706;DHT22;11520;51.198;4.468;2022-12-13T02:54:57;-2.40;99.90
22706;DHT22;11520;51.198;4.468;2022-12-13T02:57:34;-2.50;99.90
22706;DHT22;11520;51.198;4.468;2022-12-13T03:00:08;-2.50;99.90
22706;DHT22;11520;51.198;4.468;2022-12-13T03:05:46;-2.50;99.90
22706;DHT22;11520;51.198;4.468;2022-12-13T03:12:06;-2.60;99.90
22706;DHT22;11520;51.198;4.468;2022-12-13T03:17:46;-2.60;99.90
22706;DHT22;11520;51.198;4.468;2022-12-13T03:20:18;-2.60;99.90
22706;DHT22;11520;51.198;4.468;2022-12-13T03:22:46;-2.60;99.90
22706;DHT22;11520;51.198;4.468;2022-12-13T03:25:13;-2.60;99.90
22706;DHT22;11520;51.198;4.468;2022-12-13T03:27:38;-2.50;99.90
22706;DHT22;11520;51.198;4.468;2022-12-13T03:30:05;-2.60;99.90
22706;DHT22;11520;51.198;4.468;2022-12-13T03:32:34;-2.50;99.90
22706;DHT22;11520;51.198;4.468;2022-12-13T03:35:19;-2.60;99.90
22706;DHT22;11520;51.198;4.468;2022-12-13T03:37:46;-2.50;99.90
22706;DHT22;11520;51.198;4.468;2022-12-13T03:40:12;-2.50;99.90
22706;DHT22;11520;51.198;4.468;2022-12-13T03:42:37;-2.50;99.90
22706;DHT22;11520;51.198;4.468;2022-12-13T03:45:03;-2.50;99.90
22706;DHT22;11520;51.198;4.468;2022-12-13T03:47:30;-2.60;99.90
22706;DHT22;11520;51.198;4.468;2022-12-13T03:49:57;-2.60;99.90
22706;DHT22;11520;51.198;4.468;2022-12-13T03:52:22;-2.60;99.90
22706;DHT22;11520;51.198;4.468;2022-12-13T03:54:49;-2.60;99.90
22706;DHT22;11520;51.198;4.468;2022-12-13T03:57:14;-2.70;99.90
22706;DHT22;11520;51.198;4.468;2022-12-13T03:59:40;-2.80;99.90
22706;DHT22;11520;51.198;4.468;2022-12-13T04:02:06;-3.00;99.90
22706;DHT22;11520;51.198;4.468;2022-12-13T04:04:32;-3.10;99.90
22706;DHT22;11520;51.198;4.468;2022-12-13T04:06:59;-3.20;99.90
22706;DHT22;11520;51.198;4.468;2022-12-13T04:09:25;-3.30;99.90
22706;DHT22;11520;51.198;4.468;2022-12-13T04:11:50;-3.20;99.90
22706;DHT22;11520;51.198;4.468;2022-12-13T04:14:34;-3.10;99.90
22706;DHT22;11520;51.198;4.468;2022-12-13T04:17:01;-3.20;99.90
22706;DHT22;11520;51.198;4.468;2022-12-13T04:19:27;-3.20;99.90
22706;DHT22;11520;51.198;4.468;2022-12-13T04:21:53;-3.10;99.90
22706;DHT22;11520;51.198;4.468;2022-12-13T04:24:23;-3.00;99.90
22706;DHT22;11520;51.198;4.468;2022-12-13T04:26:50;-3.00;99.90
22706;DHT22;11520;51.198;4.468;2022-12-13T04:29:16;-2.90;99.90
22706;DHT22;11520;51.198;4.468;2022-12-13T04:31:42;-2.90;99.90
22706;DHT22;11520;51.198;4.468;2022-12-13T04:34:08;-2.90;99.90
22706;DHT22;11520;51.198;4.468;2022-12-13T04:36:34;-2.90;99.90
22706;DHT22;11520;51.198;4.468;2022-12-13T04:39:00;-2.80;99.90
22706;DHT22;11520;51.198;4.468;2022-12-13T04:41:27;-2.90;99.90
22706;DHT22;11520;51.198;4.468;2022-12-13T04:43:53;-3.00;99.90
22706;DHT22;11520;51.198;4.468;2022-12-13T04:46:20;-3.00;99.90
22706;DHT22;11520;51.198;4.468;2022-12-13T04:48:46;-3.00;99.90
22706;DHT22;11520;51.198;4.468;2022-12-13T04:51:13;-3.00;99.90
22706;DHT22;11520;51.198;4.468;2022-12-13T04:53:40;-3.00;99.90
22706;DHT22;11520;51.198;4.468;2022-12-13T04:56:06;-3.00;99.90
22706;DHT22;11520;51.198;4.468;2022-12-13T04:58:32;-3.00;99.90
22706;DHT22;11520;51.198;4.468;2022-12-13T05:00:58;-3.00;99.90
22706;DHT22;11520;51.198;4.468;2022-12-13T05:03:23;-2.90;99.90
22706;DHT22;11520;51.198;4.468;2022-12-13T05:05:49;-2.90;99.90
22706;DHT22;11520;51.198;4.468;2022-12-13T05:08:15;-2.90;99.90
22706;DHT22;11520;51.198;4.468;2022-12-13T05:10:41;-2.90;99.90
22706;DHT22;11520;51.198;4.468;2022-12-13T05:13:07;-2.90;99.90
22706;DHT22;11520;51.198;4.468;2022-12-13T05:15:38;-2.90;99.90
22706;DHT22;11520;51.198;4.468;2022-12-13T05:18:06;-2.90;99.90
22706;DHT22;11520;51.198;4.468;2022-12-13T05:20:34;-2.90;99.90
22706;DHT22;11520;51.198;4.468;2022-12-13T05:23:01;-2.90;99.90
22706;DHT22;11520;51.198;4.468;2022-12-13T05:25:26;-2.90;99.90
22706;DHT22;11520;51.198;4.468;2022-12-13T05:27:55;-2.90;99.90
22706;DHT22;11520;51.198;4.468;2022-12-13T05:30:24;-2.90;99.90
22706;DHT22;11520;51.198;4.468;2022-12-13T05:32:53;-2.90;99.90
22706;DHT22;11520;51.198;4.468;2022-12-13T05:35:33;-2.90;99.90
22706;DHT22;11520;51.198;4.468;2022-12-13T05:38:09;-2.90;99.90
22706;DHT22;11520;51.198;4.468;2022-12-13T05:40:37;-3.00;99.90
22706;DHT22;11520;51.198;4.468;2022-12-13T05:43:07;-2.90;99.90
22706;DHT22;11520;51.198;4.468;2022-12-13T05:45:39;-2.90;99.90
22706;DHT22;11520;51.198;4.468;2022-12-13T05:48:20;-2.90;99.90
22706;DHT22;11520;51.198;4.468;2022-12-13T05:50:51;-2.90;99.90
22706;DHT22;11520;51.198;4.468;2022-12-13T05:53:19;-2.90;99.90
22706;DHT22;11520;51.198;4.468;2022-12-13T05:55:48;-2.90;99.90
22706;DHT22;11520;51.198;4.468;2022-12-13T05:58:14;-3.00;99.90
22706;DHT22;11520;51.198;4.468;2022-12-13T06:00:41;-3.00;99.90
22706;DHT22;11520;51.198;4.468;2022-12-13T06:03:13;-3.00;99.90
22706;DHT22;11520;51.198;4.468;2022-12-13T06:05:40;-3.00;99.90
22706;DHT22;11520;51.198;4.468;2022-12-13T06:08:08;-3.00;99.90
22706;DHT22;11520;51.198;4.468;2022-12-13T06:10:35;-3.10;99.90
22706;DHT22;11520;51.198;4.468;2022-12-13T06:13:02;-3.20;99.90
22706;DHT22;11520;51.198;4.468;2022-12-13T06:15:33;-3.30;99.90
22706;DHT22;11520;51.198;4.468;2022-12-13T06:17:59;-3.30;99.90
22706;DHT22;11520;51.198;4.468;2022-12-13T06:20:28;-3.30;99.90
22706;DHT22;11520;51.198;4.468;2022-12-13T06:22:59;-3.30;99.90
22706;DHT22;11520;51.198;4.468;2022-12-13T06:25:25;-3.30;99.90
22706;DHT22;11520;51.198;4.468;2022-12-13T06:27:52;-3.40;99.90
22706;DHT22;11520;51.198;4.468;2022-12-13T06:30:18;-3.40;99.90
22706;DHT22;11520;51.198;4.468;2022-12-13T06:32:48;-3.50;99.90
22706;DHT22;11520;51.198;4.468;2022-12-13T06:35:14;-3.60;99.90
22706;DHT22;11520;51.198;4.468;2022-12-13T06:37:40;-3.50;99.90
22706;DHT22;11520;51.198;4.468;2022-12-13T06:40:06;-3.40;99.90
22706;DHT22;11520;51.198;4.468;2022-12-13T06:42:32;-3.40;99.90
22706;DHT22;11520;51.198;4.468;2022-12-13T06:44:58;-3.40;99.90
22706;DHT22;11520;51.198;4.468;2022-12-13T06:47:24;-3.40;99.90
22706;DHT22;11520;51.198;4.468;2022-12-13T06:49:51;-3.40;99.90
22706;DHT22;11520;51.198;4.468;2022-12-13T06:52:16;-3.50;99.90
22706;DHT22;11520;51.198;4.468;2022-12-13T06:54:42;-3.50;99.90
22706;DHT22;11520;51.198;4.468;2022-12-13T06:57:09;-3.50;99.90
22706;DHT22;11520;51.198;4.468;2022-12-13T06:59:35;-3.50;99.90
22706;DHT22;11520;51.198;4.468;2022-12-13T07:02:01;-3.50;99.90
22706;DHT22;11520;51.198;4.468;2022-12-13T07:04:27;-3.50;99.90
22706;DHT22;11520;51.198;4.468;2022-12-13T07:06:55;-3.40;99.90
22706;DHT22;11520;51.198;4.468;2022-12-13T07:09:22;-3.30;99.90
22706;DHT22;11520;51.198;4.468;2022-12-13T07:11:50;-3.20;99.90
22706;DHT22;11520;51.198;4.468;2022-12-13T07:14:16;-3.10;99.90
22706;DHT22;11520;51.198;4.468;2022-12-13T07:16:43;-3.10;99.90
22706;DHT22;11520;51.198;4.468;2022-12-13T07:19:10;-3.00;99.90
22706;DHT22;11520;51.198;4.468;2022-12-13T07:21:39;-2.90;99.90
22706;DHT22;11520;51.198;4.468;2022-12-13T07:24:06;-2.90;99.90
22706;DHT22;11520;51.198;4.468;2022-12-13T07:26:32;-2.90;99.90
22706;DHT22;11520;51.198;4.468;2022-12-13T07:29:02;-2.90;99.90
22706;DHT22;11520;51.198;4.468;2022-12-13T07:31:28;-2.80;99.90
22706;DHT22;11520;51.198;4.468;2022-12-13T07:33:53;-2.90;99.90
22706;DHT22;11520;51.198;4.468;2022-12-13T07:36:21;-2.80;99.90
22706;DHT22;11520;51.198;4.468;2022-12-13T07:38:55;-2.80;99.90
22706;DHT22;11520;51.198;4.468;2022-12-13T07:41:25;-2.80;99.90
22706;DHT22;11520;51.198;4.468;2022-12-13T07:43:52;-2.70;99.90
22706;DHT22;11520;51.198;4.468;2022-12-13T07:46:18;-2.70;99.90
22706;DHT22;11520;51.198;4.468;2022-12-13T07:48:45;-2.70;99.90
22706;DHT22;11520;51.198;4.468;2022-12-13T07:51:10;-2.70;99.90
22706;DHT22;11520;51.198;4.468;2022-12-13T07:53:38;-2.80;99.90
22706;DHT22;11520;51.198;4.468;2022-12-13T07:56:05;-2.80;99.90
22706;DHT22;11520;51.198;4.468;2022-12-13T07:58:32;-2.90;99.90
22706;DHT22;11520;51.198;4.468;2022-12-13T08:01:00;-3.00;99.90
22706;DHT22;11520;51.198;4.468;2022-12-13T08:03:26;-2.90;99.90
22706;DHT22;11520;51.198;4.468;2022-12-13T08:06:18;-2.80;99.90
22706;DHT22;11520;51.198;4.468;2022-12-13T08:08:44;-2.80;99.90
22706;DHT22;11520;51.198;4.468;2022-12-13T08:11:12;-2.70;99.90
22706;DHT22;11520;51.198;4.468;2022-12-13T08:13:42;-2.60;99.90
22706;DHT22;11520;51.198;4.468;2022-12-13T08:16:10;-2.50;99.90
22706;DHT22;11520;51.198;4.468;2022-12-13T08:18:36;-2.40;99.90
22706;DHT22;11520;51.198;4.468;2022-12-13T08:21:05;-2.50;99.90
22706;DHT22;11520;51.198;4.468;2022-12-13T08:23:32;-2.60;99.90
22706;DHT22;11520;51.198;4.468;2022-12-13T08:26:00;-2.60;99.90
22706;DHT22;11520;51.198;4.468;2022-12-13T08:28:27;-2.40;99.90
22706;DHT22;11520;51.198;4.468;2022-12-13T08:31:08;-2.50;99.90
22706;DHT22;11520;51.198;4.468;2022-12-13T08:33:35;-2.40;99.90
22706;DHT22;11520;51.198;4.468;2022-12-13T08:36:09;-2.40;99.90
22706;DHT22;11520;51.198;4.468;2022-12-13T08:38:35;-2.40;99.90
22706;DHT22;11520;51.198;4.468;2022-12-13T08:41:00;-2.40;99.90
22706;DHT22;11520;51.198;4.468;2022-12-13T08:43:27;-2.40;99.90
22706;DHT22;11520;51.198;4.468;2022-12-13T08:45:53;-2.40;99.90
22706;DHT22;11520;51.198;4.468;2022-12-13T08:48:18;-2.40;99.90
22706;DHT22;11520;51.198;4.468;2022-12-13T08:50:44;-2.30;99.90
22706;DHT22;11520;51.198;4.468;2022-12-13T08:53:11;-2.30;99.90
22706;DHT22;11520;51.198;4.468;2022-12-13T08:55:37;-2.20;99.90
22706;DHT22;11520;51.198;4.468;2022-12-13T08:58:05;-2.10;99.90
22706;DHT22;11520;51.198;4.468;2022-12-13T09:00:37;-1.90;99.90
22706;DHT22;11520;51.198;4.468;2022-12-13T09:03:04;-1.60;99.90
22706;DHT22;11520;51.198;4.468;2022-12-13T09:05:30;-1.30;99.90
22706;DHT22;11520;51.198;4.468;2022-12-13T09:07:59;-1.00;99.90
22706;DHT22;11520;51.198;4.468;2022-12-13T09:10:27;-0.80;99.90
22706;DHT22;11520;51.198;4.468;2022-12-13T09:12:55;-0.70;99.90
22706;DHT22;11520;51.198;4.468;2022-12-13T09:15:24;-0.50;99.90
22706;DHT22;11520;51.198;4.468;2022-12-13T09:17:50;-0.40;99.90
22706;DHT22;11520;51.198;4.468;2022-12-13T09:20:16;-0.50;99.90
22706;DHT22;11520;51.198;4.468;2022-12-13T09:22:42;-0.70;99.90
22706;DHT22;11520;51.198;4.468;2022-12-13T09:25:09;-0.60;99.90
22706;DHT22;11520;51.198;4.468;2022-12-13T09:27:35;-0.70;99.90
22706;DHT22;11520;51.198;4.468;2022-12-13T09:30:03;-0.60;99.90
22706;DHT22;11520;51.198;4.468;2022-12-13T09:32:34;-0.50;99.90
22706;DHT22;11520;51.198;4.468;2022-12-13T09:35:03;-0.50;99.90
22706;DHT22;11520;51.198;4.468;2022-12-13T09:37:31;-0.20;99.90
22706;DHT22;11520;51.198;4.468;2022-12-13T09:39:56;0.10;99.90
22706;DHT22;11520;51.198;4.468;2022-12-13T09:42:28;0.10;99.90
22706;DHT22;11520;51.198;4.468;2022-12-13T09:45:00;0.00;99.90
22706;DHT22;11520;51.198;4.468;2022-12-13T09:47:38;0.00;99.90
22706;DHT22;11520;51.198;4.468;2022-12-13T09:52:40;0.30;99.90
22706;DHT22;11520;51.198;4.468;2022-12-13T09:55:21;-0.10;99.90
22706;DHT22;11520;51.198;4.468;2022-12-13T09:57:47;0.00;99.90
22706;DHT22;11520;51.198;4.468;2022-12-13T10:00:16;-0.20;99.90
22706;DHT22;11520;51.198;4.468;2022-12-13T10:02:58;0.10;99.90
22706;DHT22;11520;51.198;4.468;2022-12-13T10:05:34;0.50;99.90
22706;DHT22;11520;51.198;4.468;2022-12-13T10:08:20;0.70;99.90
22706;DHT22;11520;51.198;4.468;2022-12-13T10:10:49;1.10;99.90
22706;DHT22;11520;51.198;4.468;2022-12-13T10:15:53;2.00;99.90
22706;DHT22;11520;51.198;4.468;2022-12-13T10:18:36;2.30;99.90
22706;DHT22;11520;51.198;4.468;2022-12-13T10:21:24;3.30;99.90
22706;DHT22;11520;51.198;4.468;2022-12-13T10:23:53;3.60;99.90
22706;DHT22;11520;51.198;4.468;2022-12-13T10:26:18;4.60;99.90
22706;DHT22;11520;51.198;4.468;2022-12-13T10:28:44;5.90;99.90
22706;DHT22;11520;51.198;4.468;2022-12-13T10:31:18;6.80;99.90
22706;DHT22;11520;51.198;4.468;2022-12-13T10:33:55;6.80;99.90
22706;DHT22;11520;51.198;4.468;2022-12-13T10:36:31;5.30;99.90
22706;DHT22;11520;51.198;4.468;2022-12-13T10:38:57;4.10;99.90
22706;DHT22;11520;51.198;4.468;2022-12-13T10:41:31;3.60;99.90
22706;DHT22;11520;51.198;4.468;2022-12-13T10:46:46;4.60;99.90
22706;DHT22;11520;51.198;4.468;2022-12-13T10:49:23;6.00;99.90
22706;DHT22;11520;51.198;4.468;2022-12-13T10:51:51;7.10;99.90
22706;DHT22;11520;51.198;4.468;2022-12-13T10:54:29;7.60;99.90
22706;DHT22;11520;51.198;4.468;2022-12-13T10:56:56;8.10;99.90
22706;DHT22;11520;51.198;4.468;2022-12-13T10:59:36;7.90;99.90
22706;DHT22;11520;51.198;4.468;2022-12-13T11:02:33;8.80;99.90
22706;DHT22;11520;51.198;4.468;2022-12-13T11:05:33;8.00;99.90
22706;DHT22;11520;51.198;4.468;2022-12-13T11:08:21;6.40;99.90
22706;DHT22;11520;51.198;4.468;2022-12-13T11:11:04;5.00;99.90
22706;DHT22;11520;51.198;4.468;2022-12-13T11:15:56;4.70;99.90
22706;DHT22;11520;51.198;4.468;2022-12-13T11:18:24;4.70;99.90
22706;DHT22;11520;51.198;4.468;2022-12-13T11:20:55;5.10;99.90
22706;DHT22;11520;51.198;4.468;2022-12-13T11:23:34;4.80;99.90
22706;DHT22;11520;51.198;4.468;2022-12-13T11:26:09;6.20;99.90
22706;DHT22;11520;51.198;4.468;2022-12-13T11:28:59;7.10;99.90
22706;DHT22;11520;51.198;4.468;2022-12-13T11:31:53;7.50;99.90
22706;DHT22;11520;51.198;4.468;2022-12-13T11:39:38;6.00;99.90
22706;DHT22;11520;51.198;4.468;2022-12-13T11:42:48;6.30;99.90
22706;DHT22;11520;51.198;4.468;2022-12-13T11:50:29;7.10;99.90
22706;DHT22;11520;51.198;4.468;2022-12-13T11:52:59;7.20;99.90
22706;DHT22;11520;51.198;4.468;2022-12-13T11:55:39;5.80;99.90
22706;DHT22;11520;51.198;4.468;2022-12-13T11:58:20;5.10;99.90
22706;DHT22;11520;51.198;4.468;2022-12-13T12:00:58;5.50;99.90
22706;DHT22;11520;51.198;4.468;2022-12-13T12:03:39;5.80;99.90
22706;DHT22;11520;51.198;4.468;2022-12-13T12:06:13;6.00;99.90
22706;DHT22;11520;51.198;4.468;2022-12-13T12:08:44;5.90;99.90
22706;DHT22;11520;51.198;4.468;2022-12-13T12:13:55;5.30;99.90
22706;DHT22;11520;51.198;4.468;2022-12-13T12:16:39;4.60;99.90
22706;DHT22;11520;51.198;4.468;2022-12-13T12:19:12;4.60;99.90
22706;DHT22;11520;51.198;4.468;2022-12-13T12:27:14;4.10;99.90
22706;DHT22;11520;51.198;4.468;2022-12-13T12:32:53;4.00;99.90
22706;DHT22;11520;51.198;4.468;2022-12-13T12:38:33;4.10;99.90
22706;DHT22;11520;51.198;4.468;2022-12-13T12:43:40;3.60;99.90
22706;DHT22;11520;51.198;4.468;2022-12-13T12:46:35;2.70;99.90
22706;DHT22;11520;51.198;4.468;2022-12-13T12:49:25;2.10;99.90
22706;DHT22;11520;51.198;4.468;2022-12-13T12:51:57;1.80;99.90
22706;DHT22;11520;51.198;4.468;2022-12-13T12:57:41;1.80;99.90
22706;DHT22;11520;51.198;4.468;2022-12-13T13:00:19;1.80;99.90
22706;DHT22;11520;51.198;4.468;2022-12-13T13:03:07;1.70;99.90
22706;DHT22;11520;51.198;4.468;2022-12-13T13:05:38;1.80;99.90
22706;DHT22;11520;51.198;4.468;2022-12-13T13:10:39;1.50;99.90
22706;DHT22;11520;51.198;4.468;2022-12-13T13:13:11;1.40;99.90
22706;DHT22;11520;51.198;4.468;2022-12-13T13:15:55;1.30;99.90
22706;DHT22;11520;51.198;4.468;2022-12-13T13:18:44;1.20;99.90
22706;DHT22;11520;51.198;4.468;2022-12-13T13:26:41;0.90;99.90
22706;DHT22;11520;51.198;4.468;2022-12-13T13:34:46;0.90;99.90
22706;DHT22;11520;51.198;4.468;2022-12-13T13:40:02;0.80;99.90
22706;DHT22;11520;51.198;4.468;2022-12-13T13:43:04;0.60;99.90
22706;DHT22;11520;51.198;4.468;2022-12-13T14:08:59;0.40;99.90
22706;DHT22;11520;51.198;4.468;2022-12-13T14:11:51;0.40;99.90
22706;DHT22;11520;51.198;4.468;2022-12-13T14:20:56;0.40;99.90
22706;DHT22;11520;51.198;4.468;2022-12-13T14:26:22;0.20;99.90
22706;DHT22;11520;51.198;4.468;2022-12-13T14:29:02;0.20;99.90
22706;DHT22;11520;51.198;4.468;2022-12-13T14:31:32;0.10;99.90
22706;DHT22;11520;51.198;4.468;2022-12-13T14:34:00;0.10;99.90
22706;DHT22;11520;51.198;4.468;2022-12-13T14:36:32;0.00;99.90
22706;DHT22;11520;51.198;4.468;2022-12-13T14:39:11;0.10;99.90
22706;DHT22;11520;51.198;4.468;2022-12-13T14:41:50;0.10;99.90
22706;DHT22;11520;51.198;4.468;2022-12-13T14:44:32;0.20;99.90
22706;DHT22;11520;51.198;4.468;2022-12-13T14:47:04;0.30;99.90
22706;DHT22;11520;51.198;4.468;2022-12-13T14:49:39;0.40;99.90
22706;DHT22;11520;51.198;4.468;2022-12-13T14:52:13;0.30;99.90
22706;DHT22;11520;51.198;4.468;2022-12-13T14:57:19;0.00;99.90
22706;DHT22;11520;51.198;4.468;2022-12-13T14:59:50;-0.10;99.90
22706;DHT22;11520;51.198;4.468;2022-12-13T15:02:36;-0.20;99.90
22706;DHT22;11520;51.198;4.468;2022-12-13T15:05:23;-0.10;99.90
22706;DHT22;11520;51.198;4.468;2022-12-13T15:07:49;-0.20;99.90
22706;DHT22;11520;51.198;4.468;2022-12-13T15:10:20;-0.20;99.90
22706;DHT22;11520;51.198;4.468;2022-12-13T15:12:48;-0.20;99.90
22706;DHT22;11520;51.198;4.468;2022-12-13T15:15:37;-0.30;99.90
22706;DHT22;11520;51.198;4.468;2022-12-13T15:18:16;-0.20;99.90
22706;DHT22;11520;51.198;4.468;2022-12-13T15:20:45;-0.20;99.90
22706;DHT22;11520;51.198;4.468;2022-12-13T15:26:20;-0.20;99.90
22706;DHT22;11520;51.198;4.468;2022-12-13T15:28:57;-0.20;99.90
22706;DHT22;11520;51.198;4.468;2022-12-13T15:31:23;-0.30;99.90
22706;DHT22;11520;51.198;4.468;2022-12-13T15:33:49;-0.30;99.90
22706;DHT22;11520;51.198;4.468;2022-12-13T15:36:25;-0.40;99.90
22706;DHT22;11520;51.198;4.468;2022-12-13T15:41:33;-0.40;99.90
22706;DHT22;11520;51.198;4.468;2022-12-13T15:44:29;-0.40;99.90
22706;DHT22;11520;51.198;4.468;2022-12-13T15:47:07;-0.40;99.90
22706;DHT22;11520;51.198;4.468;2022-12-13T15:50:27;-0.40;99.90
22706;DHT22;11520;51.198;4.468;2022-12-13T15:52:38;-0.50;99.90
22706;DHT22;11520;51.198;4.468;2022-12-13T15:57:54;-0.50;99.90
22706;DHT22;11520;51.198;4.468;2022-12-13T16:00:23;-0.50;99.90
22706;DHT22;11520;51.198;4.468;2022-12-13T16:05:27;-0.50;99.90
22706;DHT22;11520;51.198;4.468;2022-12-13T16:07:55;-0.60;99.90
22706;DHT22;11520;51.198;4.468;2022-12-13T16:10:24;-0.60;99.90
22706;DHT22;11520;51.198;4.468;2022-12-13T16:12:54;-0.50;99.90
22706;DHT22;11520;51.198;4.468;2022-12-13T16:15:24;-0.60;99.90
22706;DHT22;11520;51.198;4.468;2022-12-13T16:20:39;-0.60;99.90
22706;DHT22;11520;51.198;4.468;2022-12-13T16:23:05;-0.60;99.90
22706;DHT22;11520;51.198;4.468;2022-12-13T16:25:31;-0.60;99.90
22706;DHT22;11520;51.198;4.468;2022-12-13T16:27:57;-0.60;99.90
22706;DHT22;11520;51.198;4.468;2022-12-13T16:30:26;-0.60;99.90
22706;DHT22;11520;51.198;4.468;2022-12-13T16:32:53;-0.60;99.90
22706;DHT22;11520;51.198;4.468;2022-12-13T16:35:20;-0.70;99.90
22706;DHT22;11520;51.198;4.468;2022-12-13T16:37:47;-0.70;99.90
22706;DHT22;11520;51.198;4.468;2022-12-13T16:40:28;-0.70;99.90
22706;DHT22;11520;51.198;4.468;2022-12-13T16:42:57;-0.80;99.90
22706;DHT22;11520;51.198;4.468;2022-12-13T16:45:23;-0.70;99.90
22706;DHT22;11520;51.198;4.468;2022-12-13T16:47:51;-0.80;99.90
22706;DHT22;11520;51.198;4.468;2022-12-13T16:50:18;-0.80;99.90
22706;DHT22;11520;51.198;4.468;2022-12-13T16:52:46;-0.80;99.90
22706;DHT22;11520;51.198;4.468;2022-12-13T16:55:13;-0.70;99.90
22706;DHT22;11520;51.198;4.468;2022-12-13T16:57:40;-0.70;99.90
22706;DHT22;11520;51.198;4.468;2022-12-13T17:00:09;-0.70;99.90
22706;DHT22;11520;51.198;4.468;2022-12-13T17:02:37;-0.70;99.90
22706;DHT22;11520;51.198;4.468;2022-12-13T17:05:17;-0.70;99.90
22706;DHT22;11520;51.198;4.468;2022-12-13T17:07:46;-0.60;99.90
22706;DHT22;11520;51.198;4.468;2022-12-13T17:10:20;-0.60;99.90
22706;DHT22;11520;51.198;4.468;2022-12-13T17:12:49;-0.60;99.90
22706;DHT22;11520;51.198;4.468;2022-12-13T17:15:17;-0.60;99.90
22706;DHT22;11520;51.198;4.468;2022-12-13T17:17:45;-0.50;99.90
22706;DHT22;11520;51.198;4.468;2022-12-13T17:20:14;-0.50;99.90
22706;DHT22;11520;51.198;4.468;2022-12-13T17:22:46;-0.50;99.90
22706;DHT22;11520;51.198;4.468;2022-12-13T17:25:12;-0.50;99.90
22706;DHT22;11520;51.198;4.468;2022-12-13T17:27:47;-0.60;99.90
22706;DHT22;11520;51.198;4.468;2022-12-13T17:30:19;-0.60;99.90
22706;DHT22;11520;51.198;4.468;2022-12-13T17:32:45;-0.60;99.90
22706;DHT22;11520;51.198;4.468;2022-12-13T17:35:13;-0.60;99.90
22706;DHT22;11520;51.198;4.468;2022-12-13T17:37:43;-0.60;99.90
22706;DHT22;11520;51.198;4.468;2022-12-13T17:40:10;-0.60;99.90
22706;DHT22;11520;51.198;4.468;2022-12-13T17:42:39;-0.60;99.90
22706;DHT22;11520;51.198;4.468;2022-12-13T17:45:06;-0.70;99.90
22706;DHT22;11520;51.198;4.468;2022-12-13T17:47:32;-0.60;99.90
22706;DHT22;11520;51.198;4.468;2022-12-13T17:50:01;-0.70;99.90
22706;DHT22;11520;51.198;4.468;2022-12-13T17:52:33;-0.70;99.90
22706;DHT22;11520;51.198;4.468;2022-12-13T17:55:00;-0.70;99.90
22706;DHT22;11520;51.198;4.468;2022-12-13T17:57:31;-0.70;99.90
22706;DHT22;11520;51.198;4.468;2022-12-13T18:00:02;-0.70;99.90
22706;DHT22;11520;51.198;4.468;2022-12-13T18:02:28;-0.70;99.90
22706;DHT22;11520;51.198;4.468;2022-12-13T18:04:57;-0.70;99.90